Time;durP1;ratioP1;P1;durP2;ratioP2;P2;SDS_P1;SDS_P2;PMS_P1;PMS_P2;Temp;Humidity;BMP_temperature;BMP_pressure;BME280_temperature;BME280_humidity;BME280_pressure;Samples;Min_cycle;Max_cycle;Signal;HPM_P1;HPM_P2
2023/08/02 00:02:13;;;;;;;11.18;10.32;;;;;;;;;;10214858;28;20073;-73
2023/08/02 00:07:09;;;;;;;11.63;10.65;;;;;;;;;;10233805;28;20532;-73
2023/08/02 00:12:06;;;;;;;13.05;11.95;;;;;;;;;;10210255;28;20060;-73
2023/08/02 00:17:02;;;;;;;14.95;11.90;;;;;;;;;;10232720;28;20577;-73
2023/08/02 00:21:59;;;;;;;13.60;12.35;;;;;;;;;;10207425;28;20042;-73
2023/08/02 00:26:55;;;;;;;14.88;12.60;;;;;;;;;;10221485;28;20432;-73
2023/08/02 00:31:51;;;;;;;12.68;11.68;;;;;;;;;;10200089;28;20120;-73
2023/08/02 00:36:48;;;;;;;12.15;10.85;;;;;;;;;;10212721;28;20073;-73
2023/08/02 00:42:02;;;;;;;11.77;10.77;;;;;;;;;;10199246;28;20136;-72
2023/08/02 00:47:00;;;;;;;11.88;10.48;;;;;;;;;;10230587;28;20462;-72
2023/08/02 00:51:56;;;;;;;10.70;9.82;;;;;;;;;;10234229;28;20103;-72
2023/08/02 00:56:53;;;;;;;11.50;10.40;;;;;;;;;;10230200;28;20053;-72
2023/08/02 01:01:50;;;;;;;11.45;10.55;;;;;;;;;;10237947;28;20053;-73
2023/08/02 01:06:50;;;;;;;12.43;11.27;;;;;;;;;;10237252;28;20049;-72
2023/08/02 01:12:03;;;;;;;12.68;11.57;;;;;;;;;;10218641;28;20068;-72
2023/08/02 01:16:59;;;;;;;12.50;11.40;;;;;;;;;;10228011;28;20056;-72
2023/08/02 01:21:56;;;;;;;12.75;11.55;;;;;;;;;;10227221;28;20053;-74
2023/08/02 01:26:52;;;;;;;12.30;11.23;;;;;;;;;;10228757;28;20507;-74
2023/08/02 01:31:50;;;;;;;12.05;11.15;;;;;;;;;;10220345;28;20419;-75
2023/08/02 01:36:46;;;;;;;13.85;9.73;;;;;;;;;;10227503;28;20137;-74
2023/08/02 01:41:43;;;;;;;10.23;9.32;;;;;;;;;;10203725;28;20520;-75
2023/08/02 01:51:54;;;;;;;13.52;10.02;;;;;;;;;;9911886;26;20046;-74
2023/08/02 01:56:53;;;;;;;11.77;10.57;;;;;;;;;;10158180;28;20062;-74
2023/08/02 02:02:16;;;;;;;11.70;10.55;;;;;;;;;;10156352;28;20093;-74
2023/08/02 02:07:28;;;;;;;11.90;10.88;;;;;;;;;;10225395;28;20067;-74
2023/08/02 02:12:30;;;;;;;11.75;10.55;;;;;;;;;;10210538;28;20053;-74
2023/08/02 02:17:42;;;;;;;10.82;10.02;;;;;;;;;;10229342;28;20077;-75
2023/08/02 02:22:39;;;;;;;11.23;10.23;;;;;;;;;;10205326;28;20097;-74
2023/08/02 02:27:35;;;;;;;11.10;10.27;;;;;;;;;;10229004;28;20153;-74
2023/08/02 02:32:31;;;;;;;10.35;9.32;;;;;;;;;;10168759;28;20109;-74
2023/08/02 02:37:28;;;;;;;10.63;9.60;;;;;;;;;;10222177;28;20511;-74
2023/08/02 02:42:24;;;;;;;10.80;9.88;;;;;;;;;;10154927;28;20085;-74
2023/08/02 02:47:20;;;;;;;15.15;13.85;;;;;;;;;;10203358;28;20062;-75
2023/08/02 02:52:17;;;;;;;13.43;12.52;;;;;;;;;;10153783;28;20078;-74
2023/08/02 02:57:14;;;;;;;14.50;13.50;;;;;;;;;;10167238;28;20058;-74
2023/08/02 03:02:10;;;;;;;14.48;13.38;;;;;;;;;;10154504;28;20046;-74
2023/08/02 03:07:07;;;;;;;14.70;13.43;;;;;;;;;;10220225;28;20041;-75
2023/08/02 03:12:03;;;;;;;14.93;13.73;;;;;;;;;;10215855;28;20066;-74
2023/08/02 03:16:59;;;;;;;13.52;12.50;;;;;;;;;;10186312;28;20574;-74
2023/08/02 03:21:56;;;;;;;15.32;14.02;;;;;;;;;;10181884;28;20053;-74
2023/08/02 03:26:52;;;;;;;14.05;12.90;;;;;;;;;;10215932;28;20053;-75
2023/08/02 03:31:48;;;;;;;13.38;12.38;;;;;;;;;;10194479;28;20054;-74
2023/08/02 03:36:45;;;;;;;14.13;13.07;;;;;;;;;;10214021;28;20057;-74
2023/08/02 03:41:41;;;;;;;14.15;13.05;;;;;;;;;;10191253;28;20057;-74
2023/08/02 03:51:43;;;;;;;13.90;12.90;;;;;;;;;;10140669;28;20050;-73
2023/08/02 03:56:42;;;;;;;16.02;14.82;;;;;;;;;;10149766;28;20078;-72
2023/08/02 04:01:39;;;;;;;14.80;13.75;;;;;;;;;;10074789;29;20051;-72
2023/08/02 04:06:35;;;;;;;15.93;14.65;;;;;;;;;;10108422;28;20082;-72
2023/08/02 04:11:35;;;;;;;16.05;14.93;;;;;;;;;;10074358;29;20075;-72
2023/08/02 04:16:31;;;;;;;15.65;14.55;;;;;;;;;;10135610;28;20567;-72
2023/08/02 04:21:27;;;;;;;15.20;14.10;;;;;;;;;;10151935;28;20043;-74
2023/08/02 04:26:24;;;;;;;15.35;14.15;;;;;;;;;;10135156;28;20054;-73
2023/08/02 04:31:20;;;;;;;15.20;14.00;;;;;;;;;;10127499;28;20508;-73
2023/08/02 04:36:16;;;;;;;16.88;15.57;;;;;;;;;;10132989;28;20085;-73
2023/08/02 04:41:16;;;;;;;17.25;15.90;;;;;;;;;;10098536;28;20458;-73
2023/08/02 04:46:12;;;;;;;18.00;16.70;;;;;;;;;;10130856;28;20101;-73
2023/08/02 04:51:09;;;;;;;17.77;16.33;;;;;;;;;;10075459;28;20059;-73
2023/08/02 04:56:09;;;;;;;20.40;18.58;;;;;;;;;;10102693;28;20063;-73
2023/08/02 05:01:05;;;;;;;21.50;19.75;;;;;;;;;;10080754;28;20047;-74
2023/08/02 05:06:03;;;;;;;20.33;18.50;;;;;;;;;;10127568;28;20512;-73
2023/08/02 05:10:59;;;;;;;21.42;19.73;;;;;;;;;;10158147;28;20077;-73
2023/08/02 05:15:56;;;;;;;20.58;18.98;;;;;;;;;;10138584;28;20100;-73
2023/08/02 05:20:52;;;;;;;21.10;19.40;;;;;;;;;;10158126;28;20471;-73
2023/08/02 05:25:48;;;;;;;22.63;20.38;;;;;;;;;;10124131;28;20058;-73
2023/08/02 05:30:45;;;;;;;21.17;19.40;;;;;;;;;;10128295;28;20051;-73
2023/08/02 05:35:41;;;;;;;20.83;19.23;;;;;;;;;;10121397;28;20047;-73
2023/08/02 05:40:37;;;;;;;20.95;19.25;;;;;;;;;;10100775;28;20063;-73
2023/08/02 05:45:34;;;;;;;22.65;20.48;;;;;;;;;;10103517;28;20188;-74
2023/08/02 05:50:31;;;;;;;20.65;19.10;;;;;;;;;;10078222;28;20051;-73
2023/08/02 05:55:27;;;;;;;20.55;18.95;;;;;;;;;;10102032;28;20047;-73
2023/08/02 06:00:23;;;;;;;21.40;19.55;;;;;;;;;;10078233;28;20059;-73
2023/08/02 06:05:20;;;;;;;20.08;18.55;;;;;;;;;;10113717;28;20108;-73
2023/08/02 06:10:16;;;;;;;20.23;18.70;;;;;;;;;;10156605;28;20476;-73
2023/08/02 06:15:12;;;;;;;20.35;18.60;;;;;;;;;;10146800;28;20674;-73
2023/08/02 06:20:09;;;;;;;20.70;18.85;;;;;;;;;;10154366;28;20085;-72
2023/08/02 06:25:05;;;;;;;22.58;20.77;;;;;;;;;;10113556;28;20050;-73
2023/08/02 06:30:02;;;;;;;24.08;22.00;;;;;;;;;;10146457;28;20565;-73
2023/08/02 06:34:58;;;;;;;22.67;20.88;;;;;;;;;;10108422;28;20054;-72
2023/08/02 06:39:57;;;;;;;22.88;21.08;;;;;;;;;;10092291;28;20540;-72
2023/08/02 06:44:54;;;;;;;20.95;19.38;;;;;;;;;;10105584;28;20061;-73
2023/08/02 06:49:50;;;;;;;21.05;19.50;;;;;;;;;;10075980;28;20454;-73
2023/08/02 06:54:50;;;;;;;21.83;19.98;;;;;;;;;;10084717;28;20070;-73
2023/08/02 06:59:47;;;;;;;19.90;18.13;;;;;;;;;;10075840;28;20067;-73
2023/08/02 07:04:43;;;;;;;19.67;17.98;;;;;;;;;;10076291;28;20050;-73
2023/08/02 07:09:39;;;;;;;18.10;16.33;;;;;;;;;;10075278;28;20536;-72
2023/08/02 07:14:36;;;;;;;16.00;14.43;;;;;;;;;;10100189;28;20050;-73
2023/08/02 07:19:33;;;;;;;17.17;15.52;;;;;;;;;;10153948;28;20076;-73
2023/08/02 07:24:29;;;;;;;16.30;15.07;;;;;;;;;;10099780;28;20053;-73
2023/08/02 07:29:52;;;;;;;;;;;;;;;;;;;;;
2023/08/02 07:41:10;;;;;;;15.32;13.82;;;;;;;;;;10241546;28;20045;-73
2023/08/02 07:46:14;;;;;;;15.43;14.00;;;;;;;;;;10258742;28;20511;-73
2023/08/02 07:51:11;;;;;;;12.77;11.45;;;;;;;;;;10212833;28;20472;-74
2023/08/02 07:56:08;;;;;;;13.75;12.55;;;;;;;;;;10251376;28;20128;-72
2023/08/02 08:01:11;;;;;;;15.23;13.48;;;;;;;;;;10209979;28;20050;-72
2023/08/02 08:06:08;;;;;;;13.90;11.55;;;;;;;;;;10235140;28;20042;-73
2023/08/02 08:11:05;;;;;;;14.65;12.02;;;;;;;;;;10240747;28;20068;-72
2023/08/02 08:16:01;;;;;;;14.18;11.25;;;;;;;;;;10258942;28;20049;-73
2023/08/02 08:20:58;;;;;;;15.25;10.57;;;;;;;;;;10280826;28;20056;-73
2023/08/02 08:25:55;;;;;;;13.45;10.55;;;;;;;;;;10270970;28;20530;-72
2023/08/02 08:31:01;;;;;;;11.00;9.57;;;;;;;;;;10280101;28;20057;-73
2023/08/02 08:35:57;;;;;;;11.48;10.20;;;;;;;;;;10268783;28;20064;-73
2023/08/02 08:40:54;;;;;;;10.05;8.98;;;;;;;;;;10280392;28;20057;-72
2023/08/02 08:45:52;;;;;;;11.05;8.48;;;;;;;;;;10248054;28;20053;-73
2023/08/02 08:50:49;;;;;;;11.20;8.88;;;;;;;;;;10268821;28;20050;-72
2023/08/02 08:55:48;;;;;;;10.55;8.90;;;;;;;;;;10243368;28;20065;-72
2023/08/02 09:00:45;;;;;;;10.65;8.07;;;;;;;;;;10228100;28;20088;-73
2023/08/02 09:05:43;;;;;;;11.40;8.52;;;;;;;;;;10242432;28;20064;-72
2023/08/02 09:10:39;;;;;;;11.52;8.70;;;;;;;;;;10215910;28;20052;-73
2023/08/02 09:15:35;;;;;;;8.63;7.70;;;;;;;;;;10227800;28;20080;-73
2023/08/02 09:20:32;;;;;;;11.13;8.32;;;;;;;;;;10198224;28;20052;-73
2023/08/02 09:25:28;;;;;;;10.38;7.80;;;;;;;;;;10198428;28;20069;-73
2023/08/02 09:30:27;;;;;;;8.43;7.30;;;;;;;;;;10197724;28;20459;-73
2023/08/02 09:35:23;;;;;;;9.63;7.00;;;;;;;;;;10236279;28;20534;-73
2023/08/02 09:40:20;;;;;;;9.48;8.50;;;;;;;;;;10270731;28;20451;-73
2023/08/02 09:45:29;;;;;;;9.82;7.78;;;;;;;;;;10233709;28;20521;-72
2023/08/02 09:50:27;;;;;;;9.52;7.80;;;;;;;;;;10263061;28;20038;-73
2023/08/02 09:55:26;;;;;;;9.00;8.10;;;;;;;;;;10256142;28;20095;-73
2023/08/02 10:00:23;;;;;;;10.25;7.53;;;;;;;;;;10257876;28;20557;-73
2023/08/02 10:05:19;;;;;;;9.30;7.97;;;;;;;;;;10255583;28;20099;-73
2023/08/02 10:10:18;;;;;;;11.45;7.97;;;;;;;;;;10215545;28;20061;-72
2023/08/02 10:15:14;;;;;;;9.10;8.20;;;;;;;;;;10232025;28;20049;-73
2023/08/02 10:20:11;;;;;;;11.18;7.55;;;;;;;;;;10222796;28;20061;-72
2023/08/02 10:25:08;;;;;;;10.63;8.50;;;;;;;;;;10251624;28;20045;-72
2023/08/02 10:30:08;;;;;;;10.80;8.18;;;;;;;;;;10178222;28;20082;-73
2023/08/02 10:35:04;;;;;;;11.98;8.15;;;;;;;;;;10226570;28;20057;-73
2023/08/02 10:40:00;;;;;;;8.90;7.95;;;;;;;;;;10178648;28;20054;-72
2023/08/02 10:44:57;;;;;;;8.60;7.35;;;;;;;;;;10217976;28;20380;-73
2023/08/02 10:49:53;;;;;;;9.13;7.68;;;;;;;;;;10234916;28;20120;-73
2023/08/02 10:55:05;;;;;;;9.88;8.02;;;;;;;;;;10242188;28;20065;-73
2023/08/02 11:00:24;;;;;;;9.20;7.28;;;;;;;;;;10255171;28;20122;-72
2023/08/02 11:05:39;;;;;;;9.52;8.30;;;;;;;;;;10231194;28;20053;-73
2023/08/02 11:10:49;;;;;;;12.07;9.27;;;;;;;;;;10231487;28;20064;-73
2023/08/02 11:15:45;;;;;;;23.17;8.00;;;;;;;;;;10237947;28;20055;-73
2023/08/02 11:20:43;;;;;;;10.52;8.60;;;;;;;;;;10249773;28;20814;-73
2023/08/02 11:25:39;;;;;;;10.45;8.43;;;;;;;;;;10254499;28;20079;-73
2023/08/02 11:30:36;;;;;;;10.27;8.10;;;;;;;;;;10215752;28;20129;-73
2023/08/02 11:35:32;;;;;;;11.55;8.45;;;;;;;;;;10234419;28;20410;-73
2023/08/02 11:40:36;;;;;;;11.50;8.23;;;;;;;;;;10197880;28;20108;-73
2023/08/02 11:45:33;;;;;;;9.73;7.85;;;;;;;;;;10214487;28;20422;-72
2023/08/02 11:50:31;;;;;;;9.68;7.72;;;;;;;;;;10235174;23;20529;-73
2023/08/02 11:55:28;;;;;;;8.90;8.00;;;;;;;;;;10233357;28;20061;-73
2023/08/02 12:00:25;;;;;;;8.40;7.60;;;;;;;;;;10233492;28;20507;-72
2023/08/02 12:05:21;;;;;;;9.90;8.38;;;;;;;;;;10223038;28;22817;-72
2023/08/02 12:10:28;;;;;;;8.77;7.88;;;;;;;;;;10203975;22;20105;-73
2023/08/02 12:15:25;;;;;;;8.68;7.93;;;;;;;;;;10191356;28;20100;-73
2023/08/02 12:20:31;;;;;;;10.82;9.20;;;;;;;;;;10178863;28;20054;-73
2023/08/02 12:25:41;;;;;;;10.43;9.50;;;;;;;;;;10192548;28;20095;-73
2023/08/02 12:30:40;;;;;;;11.68;10.70;;;;;;;;;;10159451;28;20050;-73
2023/08/02 12:35:41;;;;;;;12.00;11.00;;;;;;;;;;10197900;28;20099;-73
2023/08/02 12:40:38;;;;;;;10.93;10.10;;;;;;;;;;10160931;28;20042;-73
2023/08/02 12:45:34;;;;;;;11.40;10.35;;;;;;;;;;10164120;28;20804;-73
2023/08/02 12:50:30;;;;;;;11.43;10.43;;;;;;;;;;10160444;28;20042;-73
2023/08/02 12:55:27;;;;;;;11.80;10.70;;;;;;;;;;10197693;28;20049;-73
2023/08/02 13:00:44;;;;;;;10.85;9.38;;;;;;;;;;10199748;22;20576;-73
2023/08/02 13:06:20;;;;;;;11.40;10.50;;;;;;;;;;10193886;28;20061;-73
2023/08/02 13:11:41;;;;;;;11.20;10.40;;;;;;;;;;10221992;28;20133;-73
2023/08/02 13:16:51;;;;;;;11.10;10.18;;;;;;;;;;10207925;28;20108;-72
2023/08/02 13:22:08;;;;;;;11.93;10.38;;;;;;;;;;10209881;28;20054;-73
2023/08/02 13:28:09;;;;;;;11.93;11.02;;;;;;;;;;10217666;22;20136;-72
2023/08/02 13:33:46;;;;;;;12.55;11.45;;;;;;;;;;10038991;28;20565;-73
2023/08/02 13:38:59;;;;;;;13.93;12.63;;;;;;;;;;10237714;28;20046;-73
2023/08/02 13:43:56;;;;;;;18.77;17.10;;;;;;;;;;10173794;28;20495;-73
2023/08/02 13:48:52;;;;;;;17.02;15.52;;;;;;;;;;10217207;28;20042;-73
2023/08/02 13:53:48;;;;;;;17.42;16.02;;;;;;;;;;10151786;28;20045;-73
2023/08/02 13:58:45;;;;;;;16.58;15.30;;;;;;;;;;10191170;28;20054;-72
2023/08/02 14:03:41;;;;;;;19.90;18.02;;;;;;;;;;10166484;28;20041;-73
2023/08/02 14:08:38;;;;;;;17.23;15.85;;;;;;;;;;10163955;28;20510;-73
2023/08/02 14:13:34;;;;;;;16.83;15.63;;;;;;;;;;10162961;28;20249;-73
2023/08/02 14:18:31;;;;;;;17.05;15.95;;;;;;;;;;10156239;28;20054;-73
2023/08/02 14:23:28;;;;;;;17.80;16.70;;;;;;;;;;10162511;28;20049;-73
2023/08/02 14:28:24;;;;;;;18.48;17.05;;;;;;;;;;10235258;28;20054;-73
2023/08/02 14:33:20;;;;;;;18.45;17.15;;;;;;;;;;10227191;28;20062;-73
2023/08/02 14:38:17;;;;;;;18.92;17.63;;;;;;;;;;10235222;28;20045;-73
2023/08/02 14:43:13;;;;;;;20.80;19.30;;;;;;;;;;10192682;28;20050;-72
2023/08/02 14:48:09;;;;;;;20.50;19.00;;;;;;;;;;10233889;28;20042;-72
2023/08/02 14:53:06;;;;;;;19.67;18.25;;;;;;;;;;10195017;28;20046;-72
2023/08/02 14:58:02;;;;;;;20.45;18.95;;;;;;;;;;10213234;28;20101;-72
2023/08/02 15:02:58;;;;;;;19.75;18.27;;;;;;;;;;10154186;28;20046;-72
2023/08/02 15:07:55;;;;;;;18.50;17.30;;;;;;;;;;10207103;28;20050;-72
2023/08/02 15:12:52;;;;;;;17.05;15.95;;;;;;;;;;10137194;28;20055;-72
2023/08/02 15:17:48;;;;;;;17.08;15.93;;;;;;;;;;10197693;28;20436;-72
2023/08/02 15:22:44;;;;;;;17.27;16.17;;;;;;;;;;10154547;28;20057;-72
2023/08/02 15:27:40;;;;;;;17.30;16.20;;;;;;;;;;10171742;28;20062;-72
2023/08/02 15:32:37;;;;;;;18.92;17.63;;;;;;;;;;10153878;28;20061;-72
2023/08/02 15:37:33;;;;;;;18.63;17.17;;;;;;;;;;10192322;28;20062;-72
2023/08/02 15:42:29;;;;;;;18.77;17.42;;;;;;;;;;10193982;28;20504;-72
2023/08/02 15:47:26;;;;;;;16.38;15.32;;;;;;;;;;10227066;28;20049;-72
2023/08/02 15:52:22;;;;;;;19.27;18.10;;;;;;;;;;10216462;28;20054;-72
2023/08/02 15:57:18;;;;;;;17.58;16.35;;;;;;;;;;10222323;28;20073;-72
2023/08/02 16:02:18;;;;;;;17.00;15.90;;;;;;;;;;10212526;28;20054;-72
2023/08/02 16:07:14;;;;;;;17.33;16.33;;;;;;;;;;10221240;28;20134;-72
2023/08/02 16:12:14;;;;;;;16.60;15.60;;;;;;;;;;10186649;28;20054;-72
2023/08/02 16:17:13;;;;;;;18.45;17.25;;;;;;;;;;10228405;28;20507;-72
2023/08/02 16:22:09;;;;;;;15.98;14.98;;;;;;;;;;10185073;28;20508;-72
2023/08/02 16:27:05;;;;;;;17.63;16.52;;;;;;;;;;10222779;28;20103;-72
2023/08/02 16:32:02;;;;;;;17.48;16.25;;;;;;;;;;10200486;28;20511;-72
2023/08/02 16:36:58;;;;;;;16.50;15.50;;;;;;;;;;10190467;28;20143;-72
2023/08/02 16:41:54;;;;;;;17.20;15.90;;;;;;;;;;10160373;28;20054;-72
2023/08/02 16:46:51;;;;;;;16.05;14.95;;;;;;;;;;10169809;28;20531;-72
2023/08/02 16:51:47;;;;;;;15.77;14.68;;;;;;;;;;10159506;28;20054;-72
2023/08/02 16:56:46;;;;;;;15.80;14.70;;;;;;;;;;10219006;28;20076;-72
2023/08/02 17:01:42;;;;;;;15.23;14.25;;;;;;;;;;10231790;28;20463;-72
2023/08/02 17:06:39;;;;;;;15.25;14.10;;;;;;;;;;10217518;28;20050;-72
2023/08/02 17:11:36;;;;;;;14.68;13.60;;;;;;;;;;10217423;28;20216;-72
2023/08/02 17:16:32;;;;;;;14.35;13.45;;;;;;;;;;10226648;28;20507;-72
2023/08/02 17:21:34;;;;;;;14.32;13.43;;;;;;;;;;10213906;28;20077;-72
2023/08/02 17:26:30;;;;;;;15.20;14.30;;;;;;;;;;10226228;28;20057;-72
2023/08/02 17:31:27;;;;;;;14.60;13.63;;;;;;;;;;10201090;28;20045;-72
2023/08/02 17:36:23;;;;;;;15.02;14.02;;;;;;;;;;10209797;28;20057;-72
2023/08/02 17:41:24;;;;;;;15.13;14.18;;;;;;;;;;10197062;28;20108;-71
2023/08/02 17:46:21;;;;;;;17.40;16.30;;;;;;;;;;10217878;28;20045;-72
2023/08/02 17:51:17;;;;;;;15.20;14.30;;;;;;;;;;10235351;28;20051;-72
2023/08/02 17:56:15;;;;;;;16.30;15.30;;;;;;;;;;10208804;28;20534;-72
2023/08/02 18:01:15;;;;;;;15.73;14.73;;;;;;;;;;10232836;28;20080;-72
2023/08/02 18:06:12;;;;;;;16.38;15.18;;;;;;;;;;10221612;28;20474;-72
2023/08/02 18:11:10;;;;;;;15.68;14.68;;;;;;;;;;10230061;28;20052;-72
2023/08/02 18:16:06;;;;;;;17.52;16.42;;;;;;;;;;10203589;28;20450;-72
2023/08/02 18:21:03;;;;;;;16.17;15.18;;;;;;;;;;10227260;28;20133;-72
2023/08/02 18:25:59;;;;;;;17.83;16.63;;;;;;;;;;10204058;28;20092;-72
2023/08/02 18:31:01;;;;;;;15.75;14.85;;;;;;;;;;10188804;28;20102;-71
2023/08/02 18:36:10;;;;;;;17.02;15.90;;;;;;;;;;10201905;28;20084;-72
2023/08/02 18:41:20;;;;;;;17.20;16.10;;;;;;;;;;10155703;28;20516;-72
2023/08/02 18:46:17;;;;;;;16.10;15.10;;;;;;;;;;10194869;28;20449;-72
2023/08/02 18:51:16;;;;;;;16.77;15.60;;;;;;;;;;10155509;28;20050;-72
2023/08/02 18:56:14;;;;;;;18.02;16.92;;;;;;;;;;10175293;28;20091;-72
2023/08/02 19:01:14;;;;;;;17.67;16.58;;;;;;;;;;10155299;28;20194;-72
2023/08/02 19:06:10;;;;;;;16.55;15.35;;;;;;;;;;10213189;28;20111;-72
2023/08/02 19:11:19;;;;;;;16.15;15.00;;;;;;;;;;10234478;28;20053;-72
2023/08/02 19:16:16;;;;;;;15.93;14.82;;;;;;;;;;10222641;28;20095;-72
2023/08/02 19:21:13;;;;;;;17.75;16.65;;;;;;;;;;10234579;28;20057;-72
2023/08/02 19:26:10;;;;;;;17.92;16.63;;;;;;;;;;10207179;28;20054;-72
2023/08/02 19:31:07;;;;;;;16.90;15.80;;;;;;;;;;10226274;28;20100;-72
2023/08/02 19:36:03;;;;;;;18.17;16.77;;;;;;;;;;10218225;28;20136;-72
2023/08/02 19:41:00;;;;;;;16.23;15.23;;;;;;;;;;10185428;28;20104;-72
2023/08/02 19:45:57;;;;;;;17.60;16.40;;;;;;;;;;10204172;28;20563;-72
2023/08/02 19:50:56;;;;;;;15.93;14.73;;;;;;;;;;10187817;28;20065;-71
2023/08/02 19:55:53;;;;;;;14.90;13.80;;;;;;;;;;10201140;28;20432;-72
2023/08/02 20:00:53;;;;;;;13.82;12.93;;;;;;;;;;10201745;28;20530;-72
2023/08/02 20:05:57;;;;;;;13.05;12.07;;;;;;;;;;10213348;28;20054;-72
2023/08/02 20:10:55;;;;;;;12.15;11.23;;;;;;;;;;10144005;28;20064;-72
2023/08/02 20:15:52;;;;;;;11.73;10.93;;;;;;;;;;10189776;28;20049;-70
2023/08/02 20:20:51;;;;;;;11.93;11.23;;;;;;;;;;10200430;28;20045;-70
2023/08/02 20:25:53;;;;;;;13.68;12.68;;;;;;;;;;10219911;28;20137;-70
2023/08/02 20:30:53;;;;;;;14.00;13.10;;;;;;;;;;10240383;28;20065;-70
2023/08/02 20:35:49;;;;;;;14.80;13.73;;;;;;;;;;10205093;28;20144;-70
2023/08/02 20:40:46;;;;;;;15.45;14.23;;;;;;;;;;10211745;28;20046;-70
2023/08/02 20:45:43;;;;;;;14.55;13.45;;;;;;;;;;10202626;28;20049;-70
2023/08/02 20:50:44;;;;;;;14.43;13.15;;;;;;;;;;10194111;28;20081;-70
2023/08/02 20:55:41;;;;;;;15.48;14.48;;;;;;;;;;10201580;28;20045;-71
2023/08/02 21:00:37;;;;;;;16.45;15.35;;;;;;;;;;10239046;23;20052;-71
2023/08/02 21:05:46;;;;;;;15.45;14.35;;;;;;;;;;10296994;28;20045;-71
2023/08/02 21:10:43;;;;;;;14.73;13.73;;;;;;;;;;10239188;28;20451;-70
2023/08/02 21:15:43;;;;;;;16.05;15.00;;;;;;;;;;10247458;28;20125;-72
2023/08/02 21:20:41;;;;;;;16.30;15.30;;;;;;;;;;10238957;28;20084;-72
2023/08/02 21:25:39;;;;;;;14.60;13.50;;;;;;;;;;10263360;28;20102;-72
2023/08/02 21:30:35;;;;;;;14.55;13.65;;;;;;;;;;10319652;28;20044;-72
2023/08/02 21:35:32;;;;;;;14.60;13.60;;;;;;;;;;10287745;28;20057;-72
2023/08/02 21:40:29;;;;;;;14.88;13.68;;;;;;;;;;10316546;28;20052;-73
2023/08/02 21:45:25;;;;;;;14.70;13.57;;;;;;;;;;10276199;28;20166;-72
2023/08/02 21:50:22;;;;;;;15.07;14.18;;;;;;;;;;10317127;28;20052;-73
2023/08/02 21:55:18;;;;;;;16.02;14.95;;;;;;;;;;10274703;28;20053;-71
2023/08/02 22:00:15;;;;;;;16.40;15.05;;;;;;;;;;10311798;28;20061;-73
2023/08/02 22:05:15;;;;;;;16.27;15.18;;;;;;;;;;10271732;28;20044;-73
2023/08/02 22:10:18;;;;;;;16.63;15.52;;;;;;;;;;10275619;28;20064;-73
2023/08/02 22:15:15;;;;;;;15.52;14.63;;;;;;;;;;10273597;28;20052;-73
2023/08/02 22:20:12;;;;;;;16.10;15.02;;;;;;;;;;10244377;28;20132;-73
2023/08/02 22:25:08;;;;;;;15.35;14.23;;;;;;;;;;10241488;28;20049;-73
2023/08/02 22:30:06;;;;;;;17.70;16.65;;;;;;;;;;10236085;28;20487;-73
2023/08/02 22:35:02;;;;;;;16.30;15.20;;;;;;;;;;10240237;28;20057;-73
2023/08/02 22:39:58;;;;;;;16.95;15.85;;;;;;;;;;10236165;28;20084;-73
2023/08/02 22:44:55;;;;;;;16.95;15.95;;;;;;;;;;10265417;28;20052;-74
2023/08/02 22:49:51;;;;;;;16.52;15.23;;;;;;;;;;10314175;28;20109;-74
2023/08/02 22:54:51;;;;;;;15.95;14.75;;;;;;;;;;10264652;28;20118;-73
2023/08/02 22:59:47;;;;;;;16.15;15.20;;;;;;;;;;10293131;28;20080;-73
2023/08/02 23:04:45;;;;;;;18.25;16.73;;;;;;;;;;10260534;28;20098;-74
2023/08/02 23:09:45;;;;;;;16.50;15.35;;;;;;;;;;10262878;28;20057;-73
2023/08/02 23:14:41;;;;;;;18.27;17.08;;;;;;;;;;10261354;28;20056;-73
2023/08/02 23:19:37;;;;;;;17.27;16.02;;;;;;;;;;10235220;28;20080;-73
2023/08/02 23:24:34;;;;;;;17.70;16.30;;;;;;;;;;10250263;28;20053;-73
2023/08/02 23:29:30;;;;;;;17.20;15.65;;;;;;;;;;10249044;23;20045;-73
2023/08/02 23:34:27;;;;;;;17.33;15.75;;;;;;;;;;10225173;28;20092;-73
2023/08/02 23:39:23;;;;;;;16.40;15.00;;;;;;;;;;10233718;28;20523;-74
2023/08/02 23:44:19;;;;;;;16.80;15.60;;;;;;;;;;10232473;28;20081;-73
2023/08/02 23:49:15;;;;;;;16.83;15.45;;;;;;;;;;10221000;28;20058;-73
2023/08/02 23:54:12;;;;;;;16.50;15.25;;;;;;;;;;10202983;28;20095;-73
2023/08/02 23:59:09;;;;;;;16.70;15.50;;;;;;;;;;10202451;28;20120;-74
